Time,TemperatureF,DewpointF,PressureIn,WindDirection,WindDirectionDegrees,WindSpeedMPH,WindSpeedGustMPH,Humidity,HourlyPrecipIn,Conditions,Clouds,dailyrainin,SoftwareType,DateUTC
2013-04-15 00:02:00,58.0,57.0,29.77,WSW,247,8.0,11.0,98,-99.99,,,-99.99,,2013-04-15 05:02:00,
2013-04-15 00:12:00,58.0,58.0,29.77,WSW,247,8.0,12.0,98,-99.99,,,-99.99,,2013-04-15 05:12:00,
2013-04-15 00:23:00,58.0,58.0,29.78,WSW,247,7.0,9.0,97,-99.99,,,-99.99,,2013-04-15 05:23:00,
2013-04-15 00:32:00,58.0,58.0,29.78,WSW,247,6.0,8.0,97,-99.99,,,-99.99,,2013-04-15 05:32:00,
2013-04-15 00:42:00,58.0,58.0,29.78,SW,225,5.0,7.0,97,-99.99,,,-99.99,,2013-04-15 05:42:00,
2013-04-15 00:52:00,59.0,58.0,29.78,SW,225,4.0,6.0,97,-99.99,,,-99.99,,2013-04-15 05:52:00,
2013-04-15 01:02:00,58.0,58.0,29.78,SW,225,3.0,4.0,97,-99.99,,,-99.99,,2013-04-15 06:02:00,
2013-04-15 01:12:00,58.0,58.0,29.79,SSW,202,4.0,6.0,98,-99.99,,,-99.99,,2013-04-15 06:12:00,
2013-04-15 01:22:00,59.0,58.0,29.78,SSW,202,3.0,6.0,97,-99.99,,,-99.99,,2013-04-15 06:22:00,
2013-04-15 01:33:00,59.0,58.0,29.79,SW,225,5.0,7.0,96,-99.99,,,-99.99,,2013-04-15 06:33:00,
2013-04-15 01:42:00,59.0,58.0,29.78,WSW,247,4.0,6.0,96,-99.99,,,-99.99,,2013-04-15 06:42:00,
2013-04-15 01:52:00,59.0,58.0,29.78,WSW,247,4.0,7.0,96,-99.99,,,-99.99,,2013-04-15 06:52:00,
2013-04-15 02:02:00,59.0,58.0,29.79,WSW,247,5.0,7.0,96,-99.99,,,-99.99,,2013-04-15 07:02:00,
2013-04-15 02:41:00,58.0,57.0,29.80,West,270,4.0,6.0,96,-99.99,,,-99.99,,2013-04-15 07:41:00,
2013-04-15 02:52:00,58.0,57.0,29.80,West,270,3.0,5.0,97,-99.99,,,-99.99,,2013-04-15 07:52:00,
2013-04-15 03:02:00,58.0,57.0,29.80,West,270,3.0,4.0,98,-99.99,,,-99.99,,2013-04-15 08:02:00,
2013-04-15 03:13:00,57.0,57.0,29.79,WNW,292,0.0,-999.0,98,-99.99,,,-99.99,,2013-04-15 08:13:00,
2013-04-15 03:22:00,57.0,57.0,29.80,West,270,3.0,4.0,98,-99.99,,,-99.99,,2013-04-15 08:22:00,
2013-04-15 03:33:00,57.0,56.0,29.81,WSW,247,4.0,4.0,98,-99.99,,,-99.99,,2013-04-15 08:33:00,
2013-04-15 03:42:00,57.0,56.0,29.81,West,270,3.0,6.0,98,-99.99,,,-99.99,,2013-04-15 08:42:00,
2013-04-15 03:52:00,57.0,56.0,29.81,WNW,292,3.0,4.0,98,-99.99,,,-99.99,,2013-04-15 08:52:00,
2013-04-15 04:02:00,57.0,56.0,29.81,West,270,4.0,6.0,98,-99.99,,,-99.99,,2013-04-15 09:02:00,
2013-04-15 04:12:00,56.0,56.0,29.82,West,270,3.0,3.0,97,-99.99,,,-99.99,,2013-04-15 09:12:00,
2013-04-15 04:22:00,56.0,56.0,29.82,West,270,4.0,6.0,97,-99.99,,,-99.99,,2013-04-15 09:22:00,
2013-04-15 04:32:00,56.0,55.0,29.84,WNW,292,5.0,7.0,96,-99.99,,,-99.99,,2013-04-15 09:32:00,
2013-04-15 04:42:00,56.0,55.0,29.84,West,270,3.0,4.0,95,-99.99,,,-99.99,,2013-04-15 09:42:00,
2013-04-15 04:53:00,56.0,54.0,29.85,WNW,292,4.0,6.0,94,-99.99,,,-99.99,,2013-04-15 09:53:00,
2013-04-15 05:02:00,56.0,54.0,29.84,West,270,3.0,4.0,94,-99.99,,,-99.99,,2013-04-15 10:02:00,
2013-04-15 05:13:00,56.0,54.0,29.85,West,270,3.0,4.0,96,-99.99,,,-99.99,,2013-04-15 10:13:00,
2013-04-15 05:23:00,56.0,54.0,29.85,West,270,5.0,7.0,95,-99.99,,,-99.99,,2013-04-15 10:23:00,
2013-04-15 05:33:00,56.0,53.0,29.85,West,270,5.0,8.0,91,-99.99,,,-99.99,,2013-04-15 10:33:00,
2013-04-15 05:42:00,56.0,51.0,29.86,West,270,6.0,10.0,85,-99.99,,,-99.99,,2013-04-15 10:42:00,
2013-04-15 05:52:00,55.0,50.0,29.86,WSW,247,5.0,7.0,84,-99.99,,,-99.99,,2013-04-15 10:52:00,
2013-04-15 06:03:00,55.0,50.0,29.86,WSW,247,3.0,4.0,85,-99.99,,,-99.99,,2013-04-15 11:03:00,
2013-04-15 06:12:00,54.0,50.0,29.86,SW,225,3.0,4.0,86,-99.99,,,-99.99,,2013-04-15 11:12:00,
2013-04-15 06:22:00,54.0,51.0,29.87,West,270,5.0,6.0,89,-99.99,,,-99.99,,2013-04-15 11:22:00,
2013-04-15 06:32:00,54.0,51.0,29.88,WSW,247,5.0,6.0,90,-99.99,,,-99.99,,2013-04-15 11:32:00,
2013-04-15 06:42:00,54.0,52.0,29.88,SW,225,4.0,6.0,92,-99.99,,,-99.99,,2013-04-15 11:42:00,
2013-04-15 06:52:00,54.0,52.0,29.88,SW,225,5.0,7.0,93,-99.99,,,-99.99,,2013-04-15 11:52:00,
2013-04-15 07:04:00,54.0,52.0,29.88,SW,225,5.0,7.0,94,-99.99,,,-99.99,,2013-04-15 12:04:00,
2013-04-15 07:13:00,54.0,52.0,29.87,South,180,4.0,6.0,95,-99.99,,,-99.99,,2013-04-15 12:13:00,
2013-04-15 07:23:00,54.0,52.0,29.88,SW,225,6.0,9.0,94,-99.99,,,-99.99,,2013-04-15 12:23:00,
2013-04-15 07:33:00,54.0,52.0,29.92,West,270,7.0,11.0,95,-99.99,,,-99.99,,2013-04-15 12:33:00,
2013-04-15 07:43:00,53.0,52.0,29.92,West,270,6.0,9.0,93,-99.99,,,-99.99,,2013-04-15 12:43:00,
2013-04-15 07:52:00,53.0,50.0,29.92,WSW,247,7.0,11.0,90,-99.99,,,-99.99,,2013-04-15 12:52:00,
2013-04-15 08:03:00,53.0,51.0,29.90,SSW,202,5.0,7.0,91,-99.99,,,-99.99,,2013-04-15 13:03:00,
2013-04-15 08:12:00,53.0,51.0,29.92,West,270,5.0,8.0,92,-99.99,,,-99.99,,2013-04-15 13:12:00,
2013-04-15 08:23:00,53.0,51.0,29.91,WSW,247,5.0,7.0,92,-99.99,,,-99.99,,2013-04-15 13:23:00,
2013-04-15 08:33:00,53.0,51.0,29.91,SW,225,5.0,8.0,92,-99.99,,,-99.99,,2013-04-15 13:33:00,
2013-04-15 08:42:00,53.0,50.0,29.91,SW,225,5.0,8.0,91,-99.99,,,-99.99,,2013-04-15 13:42:00,
2013-04-15 08:53:00,53.0,50.0,29.90,SW,225,3.0,4.0,90,-99.99,,,-99.99,,2013-04-15 13:53:00,
2013-04-15 09:04:00,53.0,50.0,29.90,WSW,247,3.0,4.0,90,-99.99,,,-99.99,,2013-04-15 14:04:00,
2013-04-15 09:12:00,53.0,50.0,29.89,SSW,202,4.0,6.0,89,-99.99,,,-99.99,,2013-04-15 14:12:00,
2013-04-15 09:22:00,53.0,49.0,29.89,SSW,202,4.0,5.0,88,-99.99,,,-99.99,,2013-04-15 14:22:00,
2013-04-15 09:33:00,53.0,49.0,29.88,South,180,3.0,5.0,86,-99.99,,,-99.99,,2013-04-15 14:33:00,
2013-04-15 09:44:00,54.0,50.0,29.87,South,180,4.0,5.0,85,-99.99,,,-99.99,,2013-04-15 14:44:00,
2013-04-15 09:53:00,54.0,49.0,29.88,South,180,5.0,8.0,83,-99.99,,,-99.99,,2013-04-15 14:53:00,
2013-04-15 10:03:00,54.0,49.0,29.88,South,180,5.0,7.0,83,-99.99,,,-99.99,,2013-04-15 15:03:00,
2013-04-15 10:13:00,55.0,49.0,29.88,South,180,6.0,8.0,80,-99.99,,,-99.99,,2013-04-15 15:13:00,
2013-04-15 10:23:00,55.0,49.0,29.89,South,180,5.0,7.0,81,-99.99,,,-99.99,,2013-04-15 15:23:00,
2013-04-15 10:34:00,55.0,48.0,29.89,SSW,202,5.0,8.0,77,-99.99,,,-99.99,,2013-04-15 15:34:00,
2013-04-15 10:43:00,56.0,46.0,29.90,SSW,202,5.0,7.0,69,-99.99,,,-99.99,,2013-04-15 15:43:00,
2013-04-15 10:53:00,56.0,46.0,29.89,SW,225,3.0,4.0,69,-99.99,,,-99.99,,2013-04-15 15:53:00,
2013-04-15 11:04:00,56.0,47.0,29.90,South,180,2.0,6.0,71,-99.99,,,-99.99,,2013-04-15 16:04:00,
2013-04-15 11:13:00,57.0,47.0,29.90,SW,225,0.0,-999.0,71,-99.99,,,-99.99,,2013-04-15 16:13:00,
2013-04-15 11:24:00,57.0,47.0,29.90,SSW,202,2.0,4.0,68,-99.99,,,-99.99,,2013-04-15 16:24:00,
2013-04-15 11:33:00,56.0,46.0,29.91,WSW,247,2.0,4.0,67,-99.99,,,-99.99,,2013-04-15 16:33:00,
2013-04-15 11:43:00,56.0,46.0,29.91,West,270,3.0,5.0,70,-99.99,,,-99.99,,2013-04-15 16:43:00,
2013-04-15 11:53:00,57.0,45.0,29.91,West,270,2.0,4.0,66,-99.99,,,-99.99,,2013-04-15 16:53:00,
2013-04-15 12:03:00,59.0,47.0,29.90,SE,135,0.0,-999.0,64,-99.99,,,-99.99,,2013-04-15 17:03:00,
2013-04-15 12:14:00,59.0,47.0,29.90,NE,45,0.0,-999.0,62,-99.99,,,-99.99,,2013-04-15 17:14:00,
2013-04-15 12:21:00,58.0,47.0,29.91,NW,315,2.0,3.0,67,-99.99,,,-99.99,,2013-04-15 17:21:00,
2013-04-15 12:33:00,58.0,48.0,29.91,West,270,2.0,4.0,70,-99.99,,,-99.99,,2013-04-15 17:33:00,
2013-04-15 12:43:00,56.0,49.0,29.92,WNW,292,5.0,7.0,76,-99.99,,,-99.99,,2013-04-15 17:43:00,
2013-04-15 12:52:00,56.0,49.0,29.92,NW,315,5.0,7.0,78,-99.99,,,-99.99,,2013-04-15 17:52:00,
2013-04-15 13:03:00,56.0,49.0,29.92,NW,315,5.0,7.0,80,-99.99,,,-99.99,,2013-04-15 18:03:00,
2013-04-15 13:12:00,56.0,49.0,29.91,NNW,337,4.0,6.0,77,-99.99,,,-99.99,,2013-04-15 18:12:00,
2013-04-15 13:23:00,56.0,49.0,29.91,NNW,337,4.0,5.0,75,-99.99,,,-99.99,,2013-04-15 18:23:00,
2013-04-15 13:32:00,57.0,50.0,29.91,NNW,337,4.0,5.0,77,-99.99,,,-99.99,,2013-04-15 18:32:00,
2013-04-15 13:42:00,56.0,49.0,29.91,East,90,3.0,4.0,76,-99.99,,,-99.99,,2013-04-15 18:42:00,
2013-04-15 13:52:00,56.0,49.0,29.90,East,90,4.0,6.0,76,-99.99,,,-99.99,,2013-04-15 18:52:00,
2013-04-15 14:02:00,57.0,50.0,29.90,East,90,4.0,8.0,79,-99.99,,,-99.99,,2013-04-15 19:02:00,
2013-04-15 14:12:00,56.0,50.0,29.90,East,90,5.0,8.0,81,-99.99,,,-99.99,,2013-04-15 19:12:00,
2013-04-15 14:22:00,56.0,50.0,29.90,NNE,22,5.0,8.0,82,-99.99,,,-99.99,,2013-04-15 19:22:00,
2013-04-15 14:35:00,55.0,50.0,29.90,NNE,22,6.0,8.0,82,-99.99,,,-99.99,,2013-04-15 19:35:00,
2013-04-15 14:48:00,55.0,50.0,29.90,NNE,22,5.0,8.0,83,-99.99,,,-99.99,,2013-04-15 19:48:00,
2013-04-15 14:57:00,55.0,50.0,29.91,East,90,6.0,8.0,83,-99.99,,,-99.99,,2013-04-15 19:57:00,
2013-04-15 15:02:00,54.0,50.0,29.91,East,90,7.0,9.0,88,-99.99,,,-99.99,,2013-04-15 20:02:00,
2013-04-15 15:11:00,53.0,51.0,29.91,East,90,7.0,9.0,92,-99.99,,,-99.99,,2013-04-15 20:11:00,
2013-04-15 15:22:00,53.0,51.0,29.91,East,90,8.0,13.0,93,-99.99,,,-99.99,,2013-04-15 20:22:00,
2013-04-15 15:32:00,52.0,51.0,29.91,East,90,9.0,13.0,95,-99.99,,,-99.99,,2013-04-15 20:32:00,
2013-04-15 15:42:00,52.0,51.0,29.91,East,90,8.0,10.0,97,-99.99,,,-99.99,,2013-04-15 20:42:00,
2013-04-15 15:52:00,51.0,51.0,29.91,East,90,7.0,11.0,97,-99.99,,,-99.99,,2013-04-15 20:52:00,
2013-04-15 16:02:00,51.0,50.0,29.91,East,90,8.0,12.0,97,-99.99,,,-99.99,,2013-04-15 21:02:00,
2013-04-15 16:12:00,50.0,50.0,29.91,NNW,337,8.0,12.0,97,-99.99,,,-99.99,,2013-04-15 21:12:00,
2013-04-15 16:22:00,50.0,50.0,29.91,East,90,8.0,12.0,97,-99.99,,,-99.99,,2013-04-15 21:22:00,
2013-04-15 16:32:00,50.0,50.0,29.91,East,90,9.0,12.0,97,-99.99,,,-99.99,,2013-04-15 21:32:00,
2013-04-15 16:42:00,50.0,50.0,29.90,East,90,9.0,12.0,97,-99.99,,,-99.99,,2013-04-15 21:42:00,
2013-04-15 16:53:00,50.0,50.0,29.90,NNE,22,7.0,12.0,98,-99.99,,,-99.99,,2013-04-15 21:53:00,
2013-04-15 17:02:00,50.0,50.0,29.91,East,90,9.0,14.0,98,-99.99,,,-99.99,,2013-04-15 22:02:00,
2013-04-15 17:13:00,50.0,49.0,29.91,East,90,10.0,13.0,97,-99.99,,,-99.99,,2013-04-15 22:13:00,
2013-04-15 17:23:00,50.0,50.0,29.90,NNE,22,8.0,12.0,97,-99.99,,,-99.99,,2013-04-15 22:23:00,
2013-04-15 17:32:00,51.0,50.0,29.90,NNE,22,8.0,12.0,97,-99.99,,,-99.99,,2013-04-15 22:32:00,
2013-04-15 17:42:00,50.0,50.0,29.90,NNE,22,9.0,12.0,96,-99.99,,,-99.99,,2013-04-15 22:42:00,
2013-04-15 17:52:00,50.0,49.0,29.91,East,90,7.0,10.0,96,-99.99,,,-99.99,,2013-04-15 22:52:00,
2013-04-15 18:02:00,51.0,50.0,29.90,NNE,22,6.0,9.0,96,-99.99,,,-99.99,,2013-04-15 23:02:00,
2013-04-15 18:12:00,51.0,49.0,29.90,NNE,22,6.0,8.0,94,-99.99,,,-99.99,,2013-04-15 23:12:00,
2013-04-15 18:22:00,51.0,49.0,29.91,NNE,22,6.0,8.0,94,-99.99,,,-99.99,,2013-04-15 23:22:00,
2013-04-15 18:32:00,51.0,49.0,29.91,NNE,22,5.0,7.0,94,-99.99,,,-99.99,,2013-04-15 23:32:00,
2013-04-15 18:42:00,51.0,49.0,29.92,NNE,22,6.0,8.0,93,-99.99,,,-99.99,,2013-04-15 23:42:00,
2013-04-15 18:52:00,51.0,49.0,29.92,NNE,22,5.0,7.0,93,-99.99,,,-99.99,,2013-04-15 23:52:00,
2013-04-15 19:02:00,51.0,49.0,29.92,NNE,22,5.0,7.0,92,-99.99,,,-99.99,,2013-04-16 00:02:00,
2013-04-15 19:12:00,51.0,49.0,29.92,NNE,22,6.0,9.0,91,-99.99,,,-99.99,,2013-04-16 00:12:00,
2013-04-15 19:22:00,51.0,49.0,29.93,NNE,22,7.0,9.0,90,-99.99,,,-99.99,,2013-04-16 00:22:00,
2013-04-15 19:32:00,51.0,48.0,29.93,NNE,22,9.0,13.0,89,-99.99,,,-99.99,,2013-04-16 00:32:00,
2013-04-15 19:42:00,51.0,48.0,29.93,NNE,22,11.0,16.0,90,-99.99,,,-99.99,,2013-04-16 00:42:00,
2013-04-15 19:52:00,51.0,48.0,29.93,NNE,22,11.0,16.0,89,-99.99,,,-99.99,,2013-04-16 00:52:00,
2013-04-15 20:02:00,51.0,48.0,29.94,NNE,22,10.0,15.0,88,-99.99,,,-99.99,,2013-04-16 01:02:00,
2013-04-15 20:12:00,51.0,48.0,29.94,East,90,7.0,12.0,89,-99.99,,,-99.99,,2013-04-16 01:12:00,
2013-04-15 20:22:00,51.0,48.0,29.95,NNE,22,10.0,15.0,89,-99.99,,,-99.99,,2013-04-16 01:22:00,
2013-04-15 20:32:00,51.0,48.0,29.95,NNE,22,11.0,16.0,89,-99.99,,,-99.99,,2013-04-16 01:32:00,
2013-04-15 20:42:00,50.0,47.0,29.96,NNE,22,11.0,14.0,89,-99.99,,,-99.99,,2013-04-16 01:42:00,
2013-04-15 20:52:00,50.0,47.0,29.96,NNE,22,10.0,13.0,88,-99.99,,,-99.99,,2013-04-16 01:52:00,
2013-04-15 21:02:00,50.0,47.0,29.96,NNE,22,10.0,13.0,88,-99.99,,,-99.99,,2013-04-16 02:02:00,
2013-04-15 21:12:00,50.0,47.0,29.97,NNE,22,11.0,15.0,88,-99.99,,,-99.99,,2013-04-16 02:12:00,
2013-04-15 21:22:00,50.0,46.0,29.98,NNE,22,12.0,17.0,88,-99.99,,,-99.99,,2013-04-16 02:22:00,
2013-04-15 21:32:00,50.0,45.0,29.98,NNE,22,12.0,20.0,86,-99.99,,,-99.99,,2013-04-16 02:32:00,
2013-04-15 21:42:00,49.0,46.0,29.97,NE,45,11.0,16.0,87,-99.99,,,-99.99,,2013-04-16 02:42:00,
2013-04-15 21:52:00,49.0,45.0,29.97,NNE,22,11.0,16.0,85,-99.99,,,-99.99,,2013-04-16 02:52:00,
2013-04-15 22:02:00,49.0,45.0,29.99,East,90,10.0,14.0,87,-99.99,,,-99.99,,2013-04-16 03:02:00,
2013-04-15 22:12:00,48.0,46.0,29.97,NE,45,13.0,18.0,91,-99.99,,,-99.99,,2013-04-16 03:12:00,
2013-04-15 22:22:00,48.0,45.0,29.97,NNE,22,10.0,14.0,91,-99.99,,,-99.99,,2013-04-16 03:22:00,
2013-04-15 22:33:00,48.0,45.0,29.96,NE,45,14.0,18.0,91,-99.99,,,-99.99,,2013-04-16 03:33:00,
2013-04-15 22:43:00,47.0,45.0,29.97,NNE,22,12.0,16.0,91,-99.99,,,-99.99,,2013-04-16 03:43:00,
2013-04-15 22:52:00,47.0,45.0,29.97,NNE,22,13.0,17.0,93,-99.99,,,-99.99,,2013-04-16 03:52:00,
2013-04-15 23:03:00,45.0,45.0,29.97,NNE,22,11.0,17.0,96,-99.99,,,-99.99,,2013-04-16 04:03:00,
2013-04-15 23:12:00,45.0,44.0,30.00,East,90,11.0,18.0,96,-99.99,,,-99.99,,2013-04-16 04:12:00,
2013-04-15 23:23:00,45.0,43.0,29.99,NNE,22,13.0,19.0,93,-99.99,,,-99.99,,2013-04-16 04:23:00,
2013-04-15 23:33:00,45.0,43.0,30.00,NNE,22,9.0,14.0,95,-99.99,,,-99.99,,2013-04-16 04:33:00,
2013-04-15 23:42:00,45.0,43.0,29.98,NNE,22,8.0,11.0,95,-99.99,,,-99.99,,2013-04-16 04:42:00,
2013-04-15 23:52:00,45.0,42.0,30.09,WNW,292,18.0,28.0,90,-99.99,,,-99.99,,2013-04-16 04:52:00,